createdAt,value
2019-01-04T00:01:12.662Z,15.40
2019-01-04T00:03:41.190Z,15.23
2019-01-04T00:06:11.018Z,15.13
2019-01-04T00:08:39.355Z,16.82
2019-01-04T00:11:07.627Z,18.57
2019-01-04T00:13:35.646Z,15.55
2019-01-04T00:16:03.658Z,17.17
2019-01-04T00:18:32.286Z,15.93
2019-01-04T00:21:02.011Z,17.47
2019-01-04T00:23:30.094Z,16.45
2019-01-04T00:25:58.616Z,14.55
2019-01-04T00:28:27.014Z,16.90
2019-01-04T00:30:55.397Z,15.78
2019-01-04T00:33:24.043Z,18.45
2019-01-04T00:35:51.975Z,17.48
2019-01-04T00:38:20.453Z,14.23
2019-01-04T00:40:48.871Z,14.28
2019-01-04T00:43:16.981Z,12.90
2019-01-04T00:45:45.272Z,12.93
2019-01-04T00:48:13.844Z,16.05
2019-01-04T00:50:44.609Z,17.17
2019-01-04T00:53:12.850Z,14.55
2019-01-04T00:56:02.507Z,14.43
2019-01-04T00:59:04.994Z,14.23
2019-01-04T01:01:52.158Z,13.18
2019-01-04T01:04:39.244Z,16.25
2019-01-04T01:07:13.950Z,13.13
2019-01-04T01:09:56.703Z,13.98
2019-01-04T01:12:53.441Z,14.18
2019-01-04T01:15:39.446Z,15.50
2019-01-04T01:18:25.469Z,12.78
2019-01-04T01:21:21.909Z,13.15
2019-01-04T01:24:09.982Z,13.03
2019-01-04T01:27:05.998Z,13.65
2019-01-04T01:29:52.069Z,11.30
2019-01-04T01:32:39.149Z,13.93
2019-01-04T01:35:25.019Z,16.02
2019-01-04T01:38:12.342Z,13.40
2019-01-04T01:40:58.047Z,13.50
2019-01-04T01:43:44.394Z,12.43
2019-01-04T01:46:46.890Z,12.50
2019-01-04T01:49:32.536Z,14.18
2019-01-04T01:52:10.175Z,11.70
2019-01-04T01:54:38.442Z,11.65
2019-01-04T01:57:07.065Z,11.30
2019-01-04T01:59:35.088Z,14.83
2019-01-04T02:02:03.303Z,11.35
2019-01-04T02:04:31.318Z,12.60
2019-01-04T02:06:59.290Z,12.50
2019-01-04T02:09:27.931Z,11.67
2019-01-04T02:11:56.190Z,11.85
2019-01-04T02:14:24.495Z,10.33
2019-01-04T02:16:52.483Z,10.48
2019-01-04T02:19:20.562Z,9.63
2019-01-04T02:21:48.578Z,10.48
2019-01-04T02:24:16.587Z,12.10
2019-01-04T02:26:46.082Z,10.70
2019-01-04T02:29:14.312Z,10.60
2019-01-04T02:31:42.587Z,11.50
2019-01-04T02:34:10.809Z,11.22
2019-01-04T02:36:39.401Z,12.67
2019-01-04T02:39:07.390Z,12.55
2019-01-04T02:41:35.341Z,13.03
2019-01-04T02:44:03.915Z,10.40
2019-01-04T02:46:31.890Z,10.53
2019-01-04T02:49:00.183Z,9.95
2019-01-04T02:51:28.438Z,13.13
2019-01-04T02:53:56.754Z,13.85
2019-01-04T02:56:25.046Z,11.75
2019-01-04T02:58:53.371Z,11.48
2019-01-04T03:01:21.950Z,11.70
2019-01-04T03:03:49.909Z,8.93
2019-01-04T03:06:18.187Z,11.48
2019-01-04T03:08:46.163Z,13.75
2019-01-04T03:11:14.159Z,11.53
2019-01-04T03:13:42.399Z,13.22
2019-01-04T03:16:11.003Z,12.95
2019-01-04T03:18:39.011Z,15.30
2019-01-04T03:21:07.330Z,11.95
2019-01-04T03:23:35.941Z,12.25
2019-01-04T03:26:04.205Z,12.93
2019-01-04T03:28:34.937Z,9.83
2019-01-04T03:31:03.181Z,10.03
2019-01-04T03:33:31.504Z,10.40
2019-01-04T03:35:59.603Z,11.30
2019-01-04T03:38:27.567Z,10.93
2019-01-04T03:40:55.818Z,14.40
2019-01-04T03:43:23.751Z,12.43
2019-01-04T03:45:51.738Z,13.67
2019-01-04T03:48:20.035Z,12.20
2019-01-04T03:50:48.311Z,11.22
2019-01-04T03:53:16.275Z,10.60
2019-01-04T03:55:44.555Z,11.63
2019-01-04T03:58:12.514Z,11.47
2019-01-04T04:00:40.515Z,14.20
2019-01-04T04:03:09.078Z,14.13
2019-01-04T04:05:37.029Z,13.62
2019-01-04T04:08:04.953Z,14.38
2019-01-04T04:10:33.248Z,12.68
2019-01-04T04:13:01.190Z,16.57
2019-01-04T04:15:29.542Z,13.90
2019-01-04T04:17:58.128Z,16.85
2019-01-04T04:20:26.113Z,16.15
2019-01-04T04:22:54.311Z,14.33
2019-01-04T04:25:22.281Z,17.07
2019-01-04T04:27:50.519Z,14.13
2019-01-04T04:30:18.463Z,16.00
2019-01-04T04:32:46.794Z,19.82
2019-01-04T04:35:14.878Z,20.70
2019-01-04T04:37:42.902Z,19.35
2019-01-04T04:40:11.113Z,16.03
2019-01-04T04:42:39.669Z,18.15
2019-01-04T04:45:11.015Z,18.70
2019-01-04T04:47:39.331Z,20.55
2019-01-04T04:50:08.286Z,20.62
2019-01-04T04:52:36.277Z,21.80
2019-01-04T04:55:06.536Z,21.12
2019-01-04T04:57:34.259Z,21.95
2019-01-04T05:00:02.236Z,21.42
2019-01-04T05:02:30.592Z,24.60
2019-01-04T05:04:58.522Z,23.30
2019-01-04T05:07:26.844Z,22.10
2019-01-04T05:09:54.764Z,22.27
2019-01-04T05:12:22.836Z,21.85
2019-01-04T05:14:50.839Z,24.47
2019-01-04T05:17:19.133Z,25.15
2019-01-04T05:19:47.126Z,23.45
2019-01-04T05:22:16.278Z,22.25
2019-01-04T05:24:45.161Z,22.17
2019-01-04T05:27:14.295Z,21.33
2019-01-04T05:29:42.778Z,22.87
2019-01-04T05:32:11.510Z,21.75
2019-01-04T05:34:40.723Z,22.00
2019-01-04T05:37:08.733Z,22.75
2019-01-04T05:39:37.479Z,24.15
2019-01-04T05:42:05.553Z,22.40
2019-01-04T05:44:34.136Z,22.00
2019-01-04T05:47:02.285Z,20.08
2019-01-04T05:49:30.475Z,17.73
2019-01-04T05:51:58.968Z,21.60
2019-01-04T05:54:27.691Z,21.68
2019-01-04T05:56:56.173Z,24.35
2019-01-04T05:59:24.498Z,22.87
2019-01-04T06:01:53.555Z,26.42
2019-01-04T06:04:21.806Z,20.30
2019-01-04T06:06:50.514Z,20.75
2019-01-04T06:09:19.458Z,23.47
2019-01-04T06:11:48.173Z,17.92
2019-01-04T06:14:16.417Z,19.85
2019-01-04T06:16:45.115Z,20.70
2019-01-04T06:19:13.878Z,24.70
2019-01-04T06:21:42.429Z,21.12
2019-01-04T06:24:10.606Z,19.70
2019-01-04T06:26:39.017Z,20.75
2019-01-04T06:29:08.262Z,19.73
2019-01-04T06:31:36.585Z,27.03
2019-01-04T06:34:05.066Z,20.40
2019-01-04T06:36:33.759Z,21.42
2019-01-04T06:39:02.255Z,25.30
2019-01-04T06:41:30.282Z,30.43
2019-01-04T06:43:58.805Z,22.98
2019-01-04T06:46:27.662Z,28.60
2019-01-04T06:48:55.693Z,21.87
2019-01-04T06:51:27.789Z,22.52
2019-01-04T06:53:53.822Z,23.62
2019-01-04T06:56:21.953Z,20.05
2019-01-04T06:58:50.065Z,23.75
2019-01-04T07:01:18.545Z,22.23
2019-01-04T07:03:46.701Z,24.43
2019-01-04T07:06:15.405Z,22.62
2019-01-04T07:08:44.298Z,21.17
2019-01-04T07:11:14.132Z,18.42
2019-01-04T07:13:42.475Z,16.83
2019-01-04T07:16:10.970Z,18.70
2019-01-04T07:18:39.545Z,19.92
2019-01-04T07:21:07.942Z,16.70
2019-01-04T07:23:36.826Z,15.72
2019-01-04T07:26:05.675Z,16.40
2019-01-04T07:28:34.510Z,13.48
2019-01-04T07:31:02.940Z,12.47
2019-01-04T07:33:32.203Z,13.98
2019-01-04T07:36:01.962Z,11.18
2019-01-04T07:38:31.716Z,10.00
2019-01-04T07:41:01.453Z,11.78
2019-01-04T07:43:30.525Z,8.28
2019-01-04T07:46:00.241Z,8.50
2019-01-04T07:48:30.231Z,7.80
2019-01-04T07:50:58.552Z,7.35
2019-01-04T07:53:28.129Z,8.88
2019-01-04T07:55:56.670Z,10.23
2019-01-04T07:58:25.441Z,8.38
2019-01-04T08:00:53.589Z,8.10
2019-01-04T08:03:22.651Z,7.58
2019-01-04T08:05:51.502Z,9.50
2019-01-04T08:08:19.566Z,8.63
2019-01-04T08:10:47.706Z,10.00
2019-01-04T08:13:15.773Z,9.48
2019-01-04T08:15:56.061Z,10.80
2019-01-04T08:18:32.268Z,7.40
2019-01-04T08:21:00.971Z,7.78
2019-01-04T08:23:28.969Z,8.43
2019-01-04T08:25:58.861Z,8.38
2019-01-04T08:28:27.001Z,6.60
2019-01-04T08:30:55.312Z,6.40
2019-01-04T08:33:24.046Z,7.53
2019-01-04T08:35:52.522Z,7.80
2019-01-04T08:38:21.077Z,7.75
2019-01-04T08:40:49.217Z,7.53
2019-01-04T08:43:17.568Z,8.58
2019-01-04T08:45:45.774Z,6.10
2019-01-04T08:48:14.293Z,6.90
2019-01-04T08:50:42.517Z,6.30
2019-01-04T08:53:10.673Z,12.33
2019-01-04T08:55:38.710Z,6.65
2019-01-04T08:58:08.696Z,6.47
2019-01-04T09:00:38.677Z,9.93
2019-01-04T09:03:08.696Z,7.75
2019-01-04T09:05:37.893Z,8.03
2019-01-04T09:08:06.550Z,5.90
2019-01-04T09:10:35.742Z,8.18
2019-01-04T09:13:04.267Z,5.55
2019-01-04T09:15:32.349Z,5.33
2019-01-04T09:18:00.401Z,8.90
2019-01-04T09:20:28.434Z,6.75
2019-01-04T09:22:56.861Z,9.98
2019-01-04T09:25:25.153Z,14.97
2019-01-04T09:27:53.181Z,11.85
2019-01-04T09:30:21.300Z,7.78
2019-01-04T09:32:49.883Z,7.35
2019-01-04T09:35:21.206Z,13.10
2019-01-04T09:37:50.282Z,9.90
2019-01-04T09:40:18.355Z,8.65
2019-01-04T09:42:47.334Z,9.50
2019-01-04T09:45:16.077Z,10.50
2019-01-04T09:47:44.503Z,12.58
2019-01-04T09:50:13.185Z,9.00
2019-01-04T09:52:41.258Z,10.03
2019-01-04T09:55:09.273Z,7.92
2019-01-04T09:57:37.445Z,11.00
2019-01-04T10:00:07.520Z,12.50
2019-01-04T10:02:35.921Z,9.90
2019-01-04T10:05:04.709Z,11.33
2019-01-04T10:07:32.915Z,10.03
2019-01-04T10:10:01.082Z,12.47
2019-01-04T10:12:29.258Z,13.80
2019-01-04T10:14:57.436Z,13.20
2019-01-04T10:17:25.610Z,8.35
2019-01-04T10:19:54.637Z,8.25
2019-01-04T10:22:22.877Z,11.30
2019-01-04T10:24:51.727Z,8.35
2019-01-04T10:27:19.938Z,9.15
2019-01-04T10:29:48.323Z,7.90
2019-01-04T10:32:17.073Z,8.50
2019-01-04T10:34:45.550Z,7.12
2019-01-04T10:37:13.704Z,8.88
2019-01-04T10:39:41.890Z,8.50
2019-01-04T10:42:10.542Z,13.00
2019-01-04T10:44:38.862Z,8.13
2019-01-04T10:47:07.857Z,9.03
2019-01-04T10:49:36.281Z,11.50
2019-01-04T10:52:04.718Z,14.80
2019-01-04T10:54:33.710Z,8.18
2019-01-04T10:57:02.602Z,6.45
2019-01-04T10:59:31.434Z,10.25
2019-01-04T11:02:00.017Z,10.48
2019-01-04T11:04:29.217Z,11.65
2019-01-04T11:06:57.594Z,11.68
2019-01-04T11:09:25.781Z,11.63
2019-01-04T11:11:54.825Z,12.40
2019-01-04T11:14:23.278Z,11.15
2019-01-04T11:16:51.680Z,12.50
2019-01-04T11:19:20.008Z,10.78
2019-01-04T11:21:48.373Z,11.28
2019-01-04T11:24:45.025Z,11.70
2019-01-04T11:27:15.764Z,11.97
2019-01-04T11:30:06.623Z,11.10
2019-01-04T11:32:44.017Z,13.95
2019-01-04T11:35:33.803Z,20.82
2019-01-04T11:38:23.717Z,10.50
2019-01-04T11:41:00.649Z,14.53
2019-01-04T11:44:03.959Z,15.03
2019-01-04T11:46:54.210Z,12.40
2019-01-04T11:49:53.485Z,14.03
2019-01-04T11:52:30.997Z,10.50
2019-01-04T11:54:55.645Z,12.30
2019-01-04T11:57:23.697Z,13.85
2019-01-04T11:59:52.153Z,10.93
2019-01-04T12:02:26.219Z,13.83
2019-01-04T12:04:50.803Z,13.90
2019-01-04T12:07:18.842Z,11.05
2019-01-04T12:09:47.497Z,11.35
2019-01-04T12:12:15.670Z,20.43
2019-01-04T12:14:44.118Z,13.93
2019-01-04T12:17:12.340Z,10.65
2019-01-04T12:19:40.484Z,10.65
2019-01-04T12:22:08.571Z,10.30
2019-01-04T12:24:37.172Z,11.97
2019-01-04T12:27:07.337Z,14.18
2019-01-04T12:29:35.818Z,10.78
2019-01-04T12:32:04.229Z,12.20
2019-01-04T12:34:32.310Z,13.65
2019-01-04T12:37:00.503Z,11.55
2019-01-04T12:39:28.675Z,12.45
2019-01-04T12:41:56.766Z,14.10
2019-01-04T12:44:25.289Z,12.03
2019-01-04T12:46:53.499Z,13.85
2019-01-04T12:49:22.098Z,14.40
2019-01-04T12:51:50.250Z,14.18
2019-01-04T12:54:18.734Z,14.45
2019-01-04T12:56:47.073Z,13.40
2019-01-04T12:59:16.678Z,16.90
2019-01-04T13:01:45.102Z,13.63
2019-01-04T13:04:13.169Z,13.58
2019-01-04T13:06:41.385Z,14.53
2019-01-04T13:09:09.450Z,12.25
2019-01-04T13:11:37.541Z,12.95
2019-01-04T13:14:07.624Z,13.20
2019-01-04T13:16:36.005Z,14.87
2019-01-04T13:19:04.167Z,14.28
2019-01-04T13:21:32.723Z,17.35
2019-01-04T13:24:00.878Z,10.32
2019-01-04T13:26:29.617Z,16.30
2019-01-04T13:28:57.777Z,12.63
2019-01-04T13:31:26.075Z,12.85
2019-01-04T13:33:54.505Z,16.60
2019-01-04T13:36:23.305Z,15.25
2019-01-04T13:38:52.177Z,13.13
2019-01-04T13:41:20.623Z,11.18
2019-01-04T13:43:48.878Z,15.23
2019-01-04T13:46:17.177Z,16.02
2019-01-04T13:48:45.739Z,12.10
2019-01-04T13:51:14.377Z,14.58
2019-01-04T13:53:42.597Z,13.85
2019-01-04T13:56:11.566Z,12.43
2019-01-04T13:58:39.765Z,12.82
2019-01-04T14:01:08.177Z,18.70
2019-01-04T14:03:37.312Z,18.25
2019-01-04T14:06:05.624Z,13.10
2019-01-04T14:08:36.080Z,13.85
2019-01-04T14:11:04.412Z,11.88
2019-01-04T14:13:32.889Z,13.90
2019-01-04T14:16:01.245Z,13.25
2019-01-04T14:18:29.786Z,13.80
2019-01-04T14:20:58.170Z,21.40
2019-01-04T14:23:28.899Z,15.13
2019-01-04T14:25:57.273Z,13.83
2019-01-04T14:28:25.957Z,13.68
2019-01-04T14:30:54.074Z,12.58
2019-01-04T14:33:22.608Z,17.35
2019-01-04T14:35:50.690Z,18.45
2019-01-04T14:38:19.688Z,15.08
2019-01-04T14:40:48.171Z,14.47
2019-01-04T14:43:16.377Z,20.37
2019-01-04T14:45:44.979Z,15.13
2019-01-04T14:48:14.111Z,15.95
2019-01-04T14:50:42.813Z,14.95
2019-01-04T14:53:11.418Z,16.10
2019-01-04T14:55:39.555Z,16.82
2019-01-04T14:58:07.733Z,13.48
2019-01-04T15:00:36.129Z,20.63
2019-01-04T15:03:04.590Z,22.85
2019-01-04T15:05:34.353Z,20.20
2019-01-04T15:08:04.335Z,19.10
2019-01-04T15:10:32.927Z,15.55
2019-01-04T15:13:01.033Z,15.33
2019-01-04T15:15:29.514Z,18.17
2019-01-04T15:17:58.785Z,13.53
2019-01-04T15:20:27.114Z,20.52
2019-01-04T15:22:55.256Z,17.75
2019-01-04T15:25:23.623Z,20.25
2019-01-04T15:27:52.130Z,19.25
2019-01-04T15:30:20.615Z,14.63
2019-01-04T15:32:49.563Z,15.10
2019-01-04T15:35:17.927Z,16.27
2019-01-04T15:37:46.118Z,17.25
2019-01-04T15:40:14.762Z,14.83
2019-01-04T15:42:43.286Z,15.30
2019-01-04T15:45:11.646Z,17.03
2019-01-04T15:47:40.628Z,17.00
2019-01-04T15:50:09.125Z,17.57
2019-01-04T15:52:37.299Z,15.90
2019-01-04T15:55:05.624Z,20.70
2019-01-04T15:57:33.854Z,19.02
2019-01-04T16:00:02.028Z,17.87
2019-01-04T16:02:30.158Z,17.95
2019-01-04T16:04:58.174Z,20.32
2019-01-04T16:07:26.750Z,18.70
2019-01-04T16:09:56.670Z,17.70
2019-01-04T16:12:24.737Z,14.93
2019-01-04T16:14:54.926Z,14.47
2019-01-04T16:17:23.036Z,13.72
2019-01-04T16:19:51.925Z,18.92
2019-01-04T16:22:21.946Z,16.40
2019-01-04T16:24:50.895Z,16.52
2019-01-04T16:27:19.438Z,16.05
2019-01-04T16:29:47.516Z,18.37
2019-01-04T16:32:15.771Z,19.60
2019-01-04T16:34:43.946Z,19.33
2019-01-04T16:37:12.495Z,19.27
2019-01-04T16:39:41.201Z,19.35
2019-01-04T16:42:09.679Z,15.30
2019-01-04T16:44:38.486Z,12.68
2019-01-04T16:47:06.562Z,12.80
2019-01-04T16:49:38.687Z,15.78
2019-01-04T16:52:06.964Z,17.25
2019-01-04T16:54:34.985Z,12.57
2019-01-04T16:57:03.515Z,14.60
2019-01-04T16:59:31.658Z,11.97
2019-01-04T17:02:01.712Z,13.72
2019-01-04T17:04:29.923Z,16.45
2019-01-04T17:06:58.111Z,12.85
2019-01-04T17:09:26.233Z,13.58
2019-01-04T17:11:54.913Z,11.70
2019-01-04T17:14:23.181Z,17.12
2019-01-04T17:16:51.609Z,9.08
2019-01-04T17:19:19.807Z,11.73
2019-01-04T17:21:48.472Z,11.48
2019-01-04T17:24:16.647Z,13.33
2019-01-04T17:26:45.252Z,15.53
2019-01-04T17:29:13.306Z,16.52
2019-01-04T17:31:42.997Z,12.73
2019-01-04T17:34:11.550Z,17.37
2019-01-04T17:36:39.674Z,10.80
2019-01-04T17:39:12.127Z,12.07
2019-01-04T17:41:40.790Z,15.18
2019-01-04T17:44:09.523Z,15.57
2019-01-04T17:46:37.660Z,11.85
2019-01-04T17:49:08.139Z,18.80
2019-01-04T17:51:36.178Z,13.27
2019-01-04T17:54:04.309Z,14.28
2019-01-04T17:56:32.947Z,10.93
2019-01-04T17:59:01.231Z,13.63
2019-01-04T18:01:29.405Z,11.22
2019-01-04T18:03:57.905Z,12.75
2019-01-04T18:06:26.058Z,16.52
2019-01-04T18:08:54.173Z,12.73
2019-01-04T18:11:23.142Z,14.10
2019-01-04T18:13:51.506Z,14.58
2019-01-04T18:16:19.573Z,11.08
2019-01-04T18:18:48.178Z,12.35
2019-01-04T18:21:18.030Z,10.98
2019-01-04T18:23:46.278Z,13.43
2019-01-04T18:26:14.806Z,12.80
2019-01-04T18:28:43.417Z,10.43
2019-01-04T18:31:11.530Z,9.08
2019-01-04T18:33:41.202Z,11.27
2019-01-04T18:36:09.226Z,9.00
2019-01-04T18:38:37.403Z,13.80
2019-01-04T18:41:06.190Z,8.85
2019-01-04T18:43:34.805Z,14.80
2019-01-04T18:46:04.126Z,16.47
2019-01-04T18:48:32.398Z,11.15
2019-01-04T18:51:00.528Z,11.38
2019-01-04T18:53:31.336Z,12.60
2019-01-04T18:55:59.482Z,15.93
2019-01-04T18:58:28.492Z,14.70
2019-01-04T19:00:56.654Z,12.25
2019-01-04T19:03:25.233Z,14.05
2019-01-04T19:05:53.350Z,12.40
2019-01-04T19:08:21.582Z,13.13
2019-01-04T19:10:49.757Z,13.80
2019-01-04T19:13:18.255Z,16.55
2019-01-04T19:15:47.802Z,14.43
2019-01-04T19:18:16.247Z,14.45
2019-01-04T19:20:44.593Z,16.57
2019-01-04T19:23:13.265Z,16.25
2019-01-04T19:25:41.373Z,12.78
2019-01-04T19:28:09.727Z,15.20
2019-01-04T19:30:37.918Z,15.28
2019-01-04T19:33:06.197Z,15.65
2019-01-04T19:35:34.638Z,14.15
2019-01-04T19:38:03.176Z,11.85
2019-01-04T19:40:31.696Z,12.90
2019-01-04T19:42:59.722Z,15.83
2019-01-04T19:45:28.379Z,13.85
2019-01-04T19:47:56.897Z,15.00
2019-01-04T19:50:24.948Z,12.35
2019-01-04T19:52:53.122Z,13.13
2019-01-04T19:55:22.081Z,12.65
2019-01-04T19:57:50.320Z,15.50
2019-01-04T20:00:19.470Z,14.45
2019-01-04T20:02:47.711Z,21.50
2019-01-04T20:05:23.829Z,16.37
2019-01-04T20:08:16.434Z,11.87
2019-01-04T20:11:20.186Z,23.10
2019-01-04T20:14:40.852Z,16.52
2019-01-04T20:17:26.572Z,15.03
2019-01-04T20:20:13.693Z,15.28
2019-01-04T20:23:03.846Z,11.45
2019-01-04T20:25:49.705Z,15.18
2019-01-04T20:28:35.754Z,16.50
2019-01-04T20:31:25.860Z,12.20
2019-01-04T20:34:28.005Z,12.98
2019-01-04T20:37:30.830Z,13.58
2019-01-04T20:40:17.781Z,13.72
2019-01-04T20:43:23.442Z,12.40
2019-01-04T20:46:16.684Z,12.13
2019-01-04T20:49:02.797Z,12.63
2019-01-04T20:51:42.899Z,10.98
2019-01-04T20:54:41.902Z,12.50
2019-01-04T20:57:19.009Z,11.03
2019-01-04T21:00:06.347Z,13.65
2019-01-04T21:02:46.882Z,11.25
2019-01-04T21:05:36.686Z,11.70
2019-01-04T21:08:22.633Z,12.35
2019-01-04T21:11:13.097Z,12.45
2019-01-04T21:14:06.195Z,10.47
2019-01-04T21:16:52.362Z,9.27
2019-01-04T21:19:51.713Z,11.65
2019-01-04T21:22:38.823Z,12.47
2019-01-04T21:25:44.570Z,12.93
2019-01-04T21:28:32.220Z,9.30
2019-01-04T21:31:18.201Z,12.98
2019-01-04T21:34:15.656Z,16.87
2019-01-04T21:37:11.287Z,10.33
2019-01-04T21:39:57.174Z,11.00
2019-01-04T21:43:03.509Z,9.83
2019-01-04T21:45:59.702Z,8.83
2019-01-04T21:49:01.966Z,13.20
2019-01-04T21:51:47.688Z,10.58
2019-01-04T21:54:38.018Z,10.65
2019-01-04T21:57:40.426Z,7.33
2019-01-04T22:00:43.282Z,9.20
2019-01-04T22:03:49.243Z,8.50
2019-01-04T22:06:48.709Z,8.18
2019-01-04T22:09:34.710Z,9.40
2019-01-04T22:12:21.737Z,10.28
2019-01-04T22:15:21.530Z,13.45
2019-01-04T22:18:27.059Z,10.18
2019-01-04T22:21:29.325Z,9.08
2019-01-04T22:24:15.502Z,9.38
2019-01-04T22:26:52.226Z,9.60
2019-01-04T22:29:46.268Z,17.15
2019-01-04T22:32:46.026Z,11.15
2019-01-04T22:35:25.465Z,10.00
2019-01-04T22:38:17.132Z,8.90
2019-01-04T22:41:00.976Z,9.88
2019-01-04T22:43:57.622Z,8.83
2019-01-04T22:46:43.711Z,7.30
2019-01-04T22:49:29.802Z,8.18
2019-01-04T22:52:29.573Z,8.38
2019-01-04T22:55:16.745Z,9.10
2019-01-04T22:58:02.793Z,6.92
2019-01-04T23:00:48.621Z,10.50
2019-01-04T23:03:35.599Z,7.67
2019-01-04T23:06:37.655Z,8.13
2019-01-04T23:09:25.337Z,7.17
2019-01-04T23:12:13.478Z,8.90
2019-01-04T23:15:01.850Z,6.67
2019-01-04T23:17:58.366Z,5.40
2019-01-04T23:20:45.093Z,6.78
2019-01-04T23:23:34.874Z,4.95
2019-01-04T23:26:37.456Z,5.90
2019-01-04T23:29:22.897Z,9.05
2019-01-04T23:32:16.241Z,7.00
2019-01-04T23:35:13.866Z,7.03
2019-01-04T23:38:00.046Z,10.77
2019-01-04T23:40:46.037Z,8.73
2019-01-04T23:43:42.333Z,9.40
2019-01-04T23:46:29.413Z,11.03
2019-01-04T23:49:17.021Z,10.60
2019-01-04T23:52:05.185Z,8.13
2019-01-04T23:55:04.791Z,9.83
2019-01-04T23:57:56.546Z,6.62
